Terminal Aerodrome Forecast
Issued by NWS Twin Cities, MN

Home | Current Version | Previous Version | Text Only | Print | Product List | Glossary Off
Versions: 1 2 3 4 5 6 7 8 9 10 11 12 13 14 15 16 17 18

840
FTUS43 KMPX 201720
TAFSTC
TAF
KSTC 201720Z 2018/2118 29011G17KT P6SM FEW025
     FM202000 28009KT P6SM SKC
     FM210100 VRB03KT P6SM SKC
     FM211500 13009KT P6SM SKC=

USA.gov is the U.S. government's official web portal to all federal, state and local government web resources and services.